sensor_id;sensor_type;location;lat;lon;timestamp;pressure;altitude;pressure_sealevel;temperature;humidity
36454;BME280;22478;51.740;-1.314;2022-09-04T00:01:48;99878.33;;;10.51;100.00
36454;BME280;22478;51.740;-1.314;2022-09-04T00:04:28;99880.81;;;11.04;100.00
36454;BME280;22478;51.740;-1.314;2022-09-04T00:07:05;99872.59;;;11.19;100.00
36454;BME280;22478;51.740;-1.314;2022-09-04T00:09:38;99882.87;;;11.21;100.00
36454;BME280;22478;51.740;-1.314;2022-09-04T00:12:09;99875.97;;;11.97;100.00
36454;BME280;22478;51.740;-1.314;2022-09-04T00:14:41;99876.50;;;11.42;100.00
36454;BME280;22478;51.740;-1.314;2022-09-04T00:17:14;99877.28;;;11.09;100.00
36454;BME280;22478;51.740;-1.314;2022-09-04T00:19:49;99888.29;;;10.93;100.00
36454;BME280;22478;51.740;-1.314;2022-09-04T00:22:25;99888.31;;;11.08;100.00
36454;BME280;22478;51.740;-1.314;2022-09-04T00:24:58;99880.03;;;11.38;100.00
36454;BME280;22478;51.740;-1.314;2022-09-04T00:27:34;99890.66;;;10.89;100.00
36454;BME280;22478;51.740;-1.314;2022-09-04T00:30:07;99882.79;;;11.04;100.00
36454;BME280;22478;51.740;-1.314;2022-09-04T00:32:40;99876.92;;;11.78;100.00
36454;BME280;22478;51.740;-1.314;2022-09-04T00:35:13;99879.42;;;11.08;100.00
36454;BME280;22478;51.740;-1.314;2022-09-04T00:37:44;99881.00;;;11.21;100.00
36454;BME280;22478;51.740;-1.314;2022-09-04T00:40:22;99879.41;;;11.27;100.00
36454;BME280;22478;51.740;-1.314;2022-09-04T00:43:24;99875.22;;;11.16;100.00
36454;BME280;22478;51.740;-1.314;2022-09-04T00:46:13;99885.61;;;11.18;100.00
36454;BME280;22478;51.740;-1.314;2022-09-04T00:49:02;99884.15;;;10.44;100.00
36454;BME280;22478;51.740;-1.314;2022-09-04T00:51:43;99878.44;;;11.79;100.00
36454;BME280;22478;51.740;-1.314;2022-09-04T00:54:32;99889.16;;;11.60;100.00
36454;BME280;22478;51.740;-1.314;2022-09-04T00:57:27;99895.06;;;10.65;100.00
36454;BME280;22478;51.740;-1.314;2022-09-04T01:00:06;99901.46;;;10.22;100.00
36454;BME280;22478;51.740;-1.314;2022-09-04T01:02:47;99899.70;;;11.08;100.00
36454;BME280;22478;51.740;-1.314;2022-09-04T01:05:32;99898.83;;;10.67;100.00
36454;BME280;22478;51.740;-1.314;2022-09-04T01:08:09;99898.56;;;10.72;100.00
36454;BME280;22478;51.740;-1.314;2022-09-04T01:10:52;99895.52;;;11.34;100.00
36454;BME280;22478;51.740;-1.314;2022-09-04T01:13:33;99898.21;;;10.13;100.00
36454;BME280;22478;51.740;-1.314;2022-09-04T01:16:08;99892.29;;;10.67;100.00
36454;BME280;22478;51.740;-1.314;2022-09-04T01:18:44;99894.79;;;10.68;100.00
36454;BME280;22478;51.740;-1.314;2022-09-04T01:21:23;99896.69;;;10.36;100.00
36454;BME280;22478;51.740;-1.314;2022-09-04T01:24:12;99901.12;;;10.01;100.00
36454;BME280;22478;51.740;-1.314;2022-09-04T01:26:48;99892.04;;;11.27;100.00
36454;BME280;22478;51.740;-1.314;2022-09-04T01:29:27;99894.77;;;11.37;100.00
36454;BME280;22478;51.740;-1.314;2022-09-04T01:32:06;99900.33;;;10.62;100.00
36454;BME280;22478;51.740;-1.314;2022-09-04T01:34:41;99901.87;;;10.11;100.00
36454;BME280;22478;51.740;-1.314;2022-09-04T01:37:24;99903.69;;;10.34;100.00
36454;BME280;22478;51.740;-1.314;2022-09-04T01:40:07;99903.52;;;10.25;100.00
36454;BME280;22478;51.740;-1.314;2022-09-04T01:42:46;99904.02;;;10.68;100.00
36454;BME280;22478;51.740;-1.314;2022-09-04T01:45:21;99906.74;;;10.78;100.00
36454;BME280;22478;51.740;-1.314;2022-09-04T01:47:52;99910.33;;;10.44;100.00
36454;BME280;22478;51.740;-1.314;2022-09-04T01:50:24;99907.88;;;9.83;100.00
36454;BME280;22478;51.740;-1.314;2022-09-04T01:52:59;99903.45;;;10.79;100.00
36454;BME280;22478;51.740;-1.314;2022-09-04T01:55:34;99900.16;;;10.97;100.00
36454;BME280;22478;51.740;-1.314;2022-09-04T01:58:14;99903.59;;;10.37;100.00
36454;BME280;22478;51.740;-1.314;2022-09-04T02:00:52;99889.38;;;11.61;100.00
36454;BME280;22478;51.740;-1.314;2022-09-04T02:03:26;99901.91;;;10.77;100.00
36454;BME280;22478;51.740;-1.314;2022-09-04T02:06:04;99902.60;;;11.79;100.00
36454;BME280;22478;51.740;-1.314;2022-09-04T02:08:47;99908.21;;;11.81;100.00
36454;BME280;22478;51.740;-1.314;2022-09-04T02:11:21;99905.26;;;11.40;100.00
36454;BME280;22478;51.740;-1.314;2022-09-04T02:14:01;99900.91;;;11.43;100.00
36454;BME280;22478;51.740;-1.314;2022-09-04T02:16:37;99898.60;;;11.67;100.00
36454;BME280;22478;51.740;-1.314;2022-09-04T02:19:15;99898.06;;;11.87;100.00
36454;BME280;22478;51.740;-1.314;2022-09-04T02:21:50;99900.88;;;11.98;100.00
36454;BME280;22478;51.740;-1.314;2022-09-04T02:24:24;99899.63;;;11.23;100.00
36454;BME280;22478;51.740;-1.314;2022-09-04T02:26:59;99902.00;;;10.40;100.00
36454;BME280;22478;51.740;-1.314;2022-09-04T02:29:34;99896.01;;;12.09;100.00
36454;BME280;22478;51.740;-1.314;2022-09-04T02:32:09;99905.10;;;10.22;100.00
36454;BME280;22478;51.740;-1.314;2022-09-04T02:34:45;99901.34;;;11.51;100.00
36454;BME280;22478;51.740;-1.314;2022-09-04T02:37:21;99895.81;;;11.15;100.00
36454;BME280;22478;51.740;-1.314;2022-09-04T02:39:59;99897.92;;;10.73;100.00
36454;BME280;22478;51.740;-1.314;2022-09-04T02:42:35;99894.37;;;10.45;100.00
36454;BME280;22478;51.740;-1.314;2022-09-04T02:45:14;99896.23;;;10.48;100.00
36454;BME280;22478;51.740;-1.314;2022-09-04T02:47:47;99891.05;;;11.20;100.00
36454;BME280;22478;51.740;-1.314;2022-09-04T02:50:28;99893.81;;;10.24;100.00
36454;BME280;22478;51.740;-1.314;2022-09-04T02:53:09;99893.28;;;11.48;100.00
36454;BME280;22478;51.740;-1.314;2022-09-04T02:55:51;99893.03;;;10.59;100.00
36454;BME280;22478;51.740;-1.314;2022-09-04T02:58:31;99881.87;;;11.28;100.00
36454;BME280;22478;51.740;-1.314;2022-09-04T03:01:08;99889.72;;;10.57;100.00
36454;BME280;22478;51.740;-1.314;2022-09-04T03:03:42;99885.10;;;11.25;100.00
36454;BME280;22478;51.740;-1.314;2022-09-04T03:06:17;99882.74;;;10.79;100.00
36454;BME280;22478;51.740;-1.314;2022-09-04T03:08:52;99878.91;;;11.09;100.00
36454;BME280;22478;51.740;-1.314;2022-09-04T03:11:25;99878.52;;;11.44;100.00
36454;BME280;22478;51.740;-1.314;2022-09-04T03:14:01;99875.20;;;11.42;100.00
36454;BME280;22478;51.740;-1.314;2022-09-04T03:16:36;99877.53;;;11.36;100.00
36454;BME280;22478;51.740;-1.314;2022-09-04T03:19:12;99878.28;;;10.65;100.00
36454;BME280;22478;51.740;-1.314;2022-09-04T03:21:47;99876.86;;;10.84;100.00
36454;BME280;22478;51.740;-1.314;2022-09-04T03:24:22;99873.74;;;11.72;100.00
36454;BME280;22478;51.740;-1.314;2022-09-04T03:26:54;99888.65;;;10.73;100.00
36454;BME280;22478;51.740;-1.314;2022-09-04T03:29:29;99885.34;;;11.65;100.00
36454;BME280;22478;51.740;-1.314;2022-09-04T03:32:06;99886.14;;;10.86;100.00
36454;BME280;22478;51.740;-1.314;2022-09-04T03:34:41;99888.23;;;10.81;100.00
36454;BME280;22478;51.740;-1.314;2022-09-04T03:37:23;99888.13;;;11.34;100.00
36454;BME280;22478;51.740;-1.314;2022-09-04T03:40:03;99890.32;;;11.50;100.00
36454;BME280;22478;51.740;-1.314;2022-09-04T03:42:45;99891.28;;;10.95;100.00
36454;BME280;22478;51.740;-1.314;2022-09-04T03:45:26;99900.16;;;11.61;100.00
36454;BME280;22478;51.740;-1.314;2022-09-04T03:48:06;99894.27;;;11.41;100.00
36454;BME280;22478;51.740;-1.314;2022-09-04T03:50:46;99890.46;;;11.51;100.00
36454;BME280;22478;51.740;-1.314;2022-09-04T03:53:21;99890.22;;;11.57;100.00
36454;BME280;22478;51.740;-1.314;2022-09-04T03:56:10;99899.60;;;10.71;100.00
36454;BME280;22478;51.740;-1.314;2022-09-04T03:58:47;99905.17;;;10.25;100.00
36454;BME280;22478;51.740;-1.314;2022-09-04T04:01:24;99905.46;;;10.79;100.00
36454;BME280;22478;51.740;-1.314;2022-09-04T04:04:12;99907.69;;;10.41;100.00
36454;BME280;22478;51.740;-1.314;2022-09-04T04:06:47;99900.99;;;12.28;100.00
36454;BME280;22478;51.740;-1.314;2022-09-04T04:09:30;99910.95;;;10.43;100.00
36454;BME280;22478;51.740;-1.314;2022-09-04T04:12:27;99900.46;;;10.93;100.00
36454;BME280;22478;51.740;-1.314;2022-09-04T04:15:06;99897.89;;;11.66;100.00
36454;BME280;22478;51.740;-1.314;2022-09-04T04:17:53;99896.21;;;11.19;100.00
36454;BME280;22478;51.740;-1.314;2022-09-04T04:20:34;99895.97;;;12.09;100.00
36454;BME280;22478;51.740;-1.314;2022-09-04T04:23:21;99890.32;;;10.75;100.00
36454;BME280;22478;51.740;-1.314;2022-09-04T04:26:06;99890.93;;;12.12;100.00
36454;BME280;22478;51.740;-1.314;2022-09-04T04:28:49;99884.35;;;13.35;100.00
36454;BME280;22478;51.740;-1.314;2022-09-04T04:31:28;99894.37;;;11.88;100.00
36454;BME280;22478;51.740;-1.314;2022-09-04T04:34:06;99893.58;;;12.03;100.00
36454;BME280;22478;51.740;-1.314;2022-09-04T04:36:45;99893.16;;;12.49;100.00
36454;BME280;22478;51.740;-1.314;2022-09-04T04:39:23;99892.59;;;12.28;100.00
36454;BME280;22478;51.740;-1.314;2022-09-04T04:42:04;99898.63;;;12.23;100.00
36454;BME280;22478;51.740;-1.314;2022-09-04T04:44:50;99900.12;;;11.14;100.00
36454;BME280;22478;51.740;-1.314;2022-09-04T04:47:33;99900.58;;;11.97;100.00
36454;BME280;22478;51.740;-1.314;2022-09-04T04:50:12;99896.87;;;12.20;100.00
36454;BME280;22478;51.740;-1.314;2022-09-04T04:52:49;99893.17;;;12.63;100.00
36454;BME280;22478;51.740;-1.314;2022-09-04T04:55:28;99895.01;;;12.84;100.00
36454;BME280;22478;51.740;-1.314;2022-09-04T04:58:20;99900.43;;;12.26;100.00
36454;BME280;22478;51.740;-1.314;2022-09-04T05:00:56;99907.01;;;11.71;100.00
36454;BME280;22478;51.740;-1.314;2022-09-04T05:03:35;99916.03;;;12.30;100.00
36454;BME280;22478;51.740;-1.314;2022-09-04T05:06:12;99925.28;;;11.47;100.00
36454;BME280;22478;51.740;-1.314;2022-09-04T05:08:45;99921.24;;;11.70;100.00
36454;BME280;22478;51.740;-1.314;2022-09-04T05:11:21;99926.31;;;12.02;100.00
36454;BME280;22478;51.740;-1.314;2022-09-04T05:13:59;99929.35;;;12.10;100.00
36454;BME280;22478;51.740;-1.314;2022-09-04T05:16:37;99925.52;;;11.29;100.00
36454;BME280;22478;51.740;-1.314;2022-09-04T05:19:11;99934.10;;;10.82;100.00
36454;BME280;22478;51.740;-1.314;2022-09-04T05:21:48;99940.59;;;11.06;100.00
36454;BME280;22478;51.740;-1.314;2022-09-04T05:24:21;99923.21;;;11.53;100.00
36454;BME280;22478;51.740;-1.314;2022-09-04T05:26:54;99937.35;;;10.99;100.00
36454;BME280;22478;51.740;-1.314;2022-09-04T05:29:27;99935.73;;;11.46;100.00
36454;BME280;22478;51.740;-1.314;2022-09-04T05:32:06;99926.28;;;12.59;100.00
36454;BME280;22478;51.740;-1.314;2022-09-04T05:34:55;99929.82;;;11.55;100.00
36454;BME280;22478;51.740;-1.314;2022-09-04T05:37:31;99927.19;;;11.06;100.00
36454;BME280;22478;51.740;-1.314;2022-09-04T05:40:09;99922.06;;;11.53;100.00
36454;BME280;22478;51.740;-1.314;2022-09-04T05:42:45;99928.80;;;11.17;100.00
36454;BME280;22478;51.740;-1.314;2022-09-04T05:45:22;99935.83;;;11.56;100.00
36454;BME280;22478;51.740;-1.314;2022-09-04T05:48:00;99938.91;;;11.41;100.00
36454;BME280;22478;51.740;-1.314;2022-09-04T05:50:43;99933.33;;;11.70;100.00
36454;BME280;22478;51.740;-1.314;2022-09-04T05:54:01;99931.75;;;11.90;100.00
36454;BME280;22478;51.740;-1.314;2022-09-04T05:56:44;99948.53;;;11.04;100.00
36454;BME280;22478;51.740;-1.314;2022-09-04T05:59:29;99948.25;;;11.14;100.00
36454;BME280;22478;51.740;-1.314;2022-09-04T06:02:13;99945.86;;;12.44;100.00
36454;BME280;22478;51.740;-1.314;2022-09-04T06:05:03;99953.07;;;11.78;100.00
36454;BME280;22478;51.740;-1.314;2022-09-04T06:07:38;99951.98;;;11.93;100.00
36454;BME280;22478;51.740;-1.314;2022-09-04T06:10:14;99951.59;;;11.30;100.00
36454;BME280;22478;51.740;-1.314;2022-09-04T06:13:28;99953.80;;;11.58;100.00
36454;BME280;22478;51.740;-1.314;2022-09-04T06:16:09;99946.96;;;10.85;100.00
36454;BME280;22478;51.740;-1.314;2022-09-04T06:18:57;99944.82;;;10.82;100.00
36454;BME280;22478;51.740;-1.314;2022-09-04T06:21:48;99948.38;;;10.95;100.00
36454;BME280;22478;51.740;-1.314;2022-09-04T06:24:29;99940.35;;;10.95;100.00
36454;BME280;22478;51.740;-1.314;2022-09-04T06:27:13;99946.16;;;11.19;100.00
36454;BME280;22478;51.740;-1.314;2022-09-04T06:29:56;99952.15;;;10.89;100.00
36454;BME280;22478;51.740;-1.314;2022-09-04T06:32:47;99956.98;;;11.26;100.00
36454;BME280;22478;51.740;-1.314;2022-09-04T06:35:31;99954.45;;;11.02;100.00
36454;BME280;22478;51.740;-1.314;2022-09-04T06:38:11;99960.61;;;11.16;100.00
36454;BME280;22478;51.740;-1.314;2022-09-04T06:40:52;99953.02;;;12.12;100.00
36454;BME280;22478;51.740;-1.314;2022-09-04T06:43:30;99959.47;;;10.94;100.00
36454;BME280;22478;51.740;-1.314;2022-09-04T06:46:05;99949.91;;;11.61;100.00
36454;BME280;22478;51.740;-1.314;2022-09-04T06:48:48;99952.61;;;10.65;100.00
36454;BME280;22478;51.740;-1.314;2022-09-04T06:51:26;99952.76;;;10.66;100.00
36454;BME280;22478;51.740;-1.314;2022-09-04T06:54:03;99956.18;;;11.22;100.00
36454;BME280;22478;51.740;-1.314;2022-09-04T06:56:50;99963.97;;;11.54;100.00
36454;BME280;22478;51.740;-1.314;2022-09-04T06:59:34;99960.92;;;11.25;100.00
36454;BME280;22478;51.740;-1.314;2022-09-04T07:02:18;99964.03;;;11.67;100.00
36454;BME280;22478;51.740;-1.314;2022-09-04T07:04:58;99970.45;;;11.68;100.00
36454;BME280;22478;51.740;-1.314;2022-09-04T07:07:35;99979.78;;;12.18;100.00
36454;BME280;22478;51.740;-1.314;2022-09-04T07:10:08;99978.65;;;12.01;100.00
36454;BME280;22478;51.740;-1.314;2022-09-04T07:12:50;99990.09;;;11.29;100.00
36454;BME280;22478;51.740;-1.314;2022-09-04T07:15:41;99998.28;;;12.87;100.00
36454;BME280;22478;51.740;-1.314;2022-09-04T07:18:26;100000.73;;;12.60;100.00
36454;BME280;22478;51.740;-1.314;2022-09-04T07:21:05;100000.38;;;13.14;100.00
36454;BME280;22478;51.740;-1.314;2022-09-04T07:23:41;100002.51;;;12.54;100.00
36454;BME280;22478;51.740;-1.314;2022-09-04T07:26:21;100008.36;;;11.74;100.00
36454;BME280;22478;51.740;-1.314;2022-09-04T07:29:00;100008.36;;;13.15;100.00
36454;BME280;22478;51.740;-1.314;2022-09-04T07:31:35;100008.76;;;12.13;100.00
36454;BME280;22478;51.740;-1.314;2022-09-04T07:34:10;100012.73;;;11.79;100.00
36454;BME280;22478;51.740;-1.314;2022-09-04T07:36:47;100012.13;;;13.00;100.00
36454;BME280;22478;51.740;-1.314;2022-09-04T07:39:22;100012.86;;;13.36;100.00
36454;BME280;22478;51.740;-1.314;2022-09-04T07:41:57;100015.28;;;12.67;100.00
36454;BME280;22478;51.740;-1.314;2022-09-04T07:44:32;100018.19;;;12.43;100.00
36454;BME280;22478;51.740;-1.314;2022-09-04T07:47:06;100025.37;;;12.23;100.00
36454;BME280;22478;51.740;-1.314;2022-09-04T07:49:42;100029.12;;;11.61;100.00
36454;BME280;22478;51.740;-1.314;2022-09-04T07:52:25;100023.20;;;13.50;100.00
36454;BME280;22478;51.740;-1.314;2022-09-04T07:55:03;100033.28;;;12.67;100.00
36454;BME280;22478;51.740;-1.314;2022-09-04T07:57:58;100035.54;;;12.64;100.00
36454;BME280;22478;51.740;-1.314;2022-09-04T08:00:34;100042.25;;;13.53;100.00
36454;BME280;22478;51.740;-1.314;2022-09-04T08:03:18;100047.79;;;13.25;100.00
36454;BME280;22478;51.740;-1.314;2022-09-04T08:05:51;100049.26;;;11.75;100.00
36454;BME280;22478;51.740;-1.314;2022-09-04T08:09:08;100047.72;;;12.91;100.00
36454;BME280;22478;51.740;-1.314;2022-09-04T08:11:52;100048.12;;;13.14;100.00
36454;BME280;22478;51.740;-1.314;2022-09-04T08:14:31;100039.94;;;13.36;100.00
36454;BME280;22478;51.740;-1.314;2022-09-04T08:17:40;100048.00;;;13.46;100.00
36454;BME280;22478;51.740;-1.314;2022-09-04T08:20:22;100050.28;;;13.19;100.00
36454;BME280;22478;51.740;-1.314;2022-09-04T08:22:57;100053.45;;;13.38;100.00
36454;BME280;22478;51.740;-1.314;2022-09-04T08:25:39;100055.14;;;13.29;100.00
36454;BME280;22478;51.740;-1.314;2022-09-04T08:28:18;100057.88;;;13.84;100.00
36454;BME280;22478;51.740;-1.314;2022-09-04T08:30:55;100062.04;;;13.42;100.00
36454;BME280;22478;51.740;-1.314;2022-09-04T08:33:43;100063.84;;;13.73;100.00
36454;BME280;22478;51.740;-1.314;2022-09-04T08:36:23;100064.35;;;12.71;100.00
36454;BME280;22478;51.740;-1.314;2022-09-04T08:39:02;100068.83;;;13.94;100.00
36454;BME280;22478;51.740;-1.314;2022-09-04T08:45:05;100079.67;;;14.34;100.00
36454;BME280;22478;51.740;-1.314;2022-09-04T08:48:30;100087.46;;;14.49;100.00
36454;BME280;22478;51.740;-1.314;2022-09-04T08:51:21;100084.54;;;14.95;100.00
36454;BME280;22478;51.740;-1.314;2022-09-04T08:54:15;100092.19;;;15.05;100.00
36454;BME280;22478;51.740;-1.314;2022-09-04T08:56:48;100099.18;;;13.35;100.00
36454;BME280;22478;51.740;-1.314;2022-09-04T08:59:51;100096.22;;;14.39;100.00
36454;BME280;22478;51.740;-1.314;2022-09-04T09:03:18;100104.86;;;15.52;100.00
36454;BME280;22478;51.740;-1.314;2022-09-04T09:06:08;100109.28;;;13.63;100.00
36454;BME280;22478;51.740;-1.314;2022-09-04T09:08:58;100107.95;;;14.97;100.00
36454;BME280;22478;51.740;-1.314;2022-09-04T09:11:47;100109.86;;;14.31;100.00
36454;BME280;22478;51.740;-1.314;2022-09-04T09:14:38;100110.40;;;14.02;100.00
36454;BME280;22478;51.740;-1.314;2022-09-04T09:17:12;100117.35;;;14.12;100.00
36454;BME280;22478;51.740;-1.314;2022-09-04T09:19:43;100112.77;;;15.50;100.00
36454;BME280;22478;51.740;-1.314;2022-09-04T09:22:27;100116.50;;;14.95;100.00
36454;BME280;22478;51.740;-1.314;2022-09-04T09:25:18;100126.32;;;14.80;100.00
36454;BME280;22478;51.740;-1.314;2022-09-04T09:28:11;100128.32;;;14.72;100.00
36454;BME280;22478;51.740;-1.314;2022-09-04T09:31:12;100137.72;;;12.60;100.00
36454;BME280;22478;51.740;-1.314;2022-09-04T09:34:11;100140.56;;;14.67;100.00
36454;BME280;22478;51.740;-1.314;2022-09-04T09:37:07;100144.09;;;13.59;100.00
36454;BME280;22478;51.740;-1.314;2022-09-04T09:39:56;100143.91;;;13.81;100.00
36454;BME280;22478;51.740;-1.314;2022-09-04T09:43:17;100147.16;;;14.15;100.00
36454;BME280;22478;51.740;-1.314;2022-09-04T09:46:08;100148.31;;;12.79;100.00
36454;BME280;22478;51.740;-1.314;2022-09-04T09:48:56;100150.63;;;14.10;100.00
36454;BME280;22478;51.740;-1.314;2022-09-04T09:52:01;100154.40;;;13.56;100.00
36454;BME280;22478;51.740;-1.314;2022-09-04T09:54:58;100158.05;;;14.03;100.00
36454;BME280;22478;51.740;-1.314;2022-09-04T09:57:46;100160.44;;;13.65;100.00
36454;BME280;22478;51.740;-1.314;2022-09-04T10:00:23;100156.30;;;14.85;100.00
36454;BME280;22478;51.740;-1.314;2022-09-04T10:03:13;100159.94;;;14.97;100.00
36454;BME280;22478;51.740;-1.314;2022-09-04T10:06:00;100161.30;;;15.50;100.00
36454;BME280;22478;51.740;-1.314;2022-09-04T10:09:59;100167.49;;;13.81;100.00
36454;BME280;22478;51.740;-1.314;2022-09-04T10:12:58;100167.32;;;13.63;100.00
36454;BME280;22478;51.740;-1.314;2022-09-04T10:16:16;100166.84;;;13.62;100.00
36454;BME280;22478;51.740;-1.314;2022-09-04T10:22:05;100174.88;;;14.36;100.00
36454;BME280;22478;51.740;-1.314;2022-09-04T10:25:23;100178.27;;;13.64;100.00
36454;BME280;22478;51.740;-1.314;2022-09-04T10:30:17;100174.74;;;15.79;100.00
36454;BME280;22478;51.740;-1.314;2022-09-04T10:32:56;100173.61;;;15.58;100.00
36454;BME280;22478;51.740;-1.314;2022-09-04T10:35:31;100175.44;;;15.08;100.00
36454;BME280;22478;51.740;-1.314;2022-09-04T10:38:23;100174.62;;;15.75;100.00
36454;BME280;22478;51.740;-1.314;2022-09-04T10:41:18;100183.09;;;14.67;100.00
36454;BME280;22478;51.740;-1.314;2022-09-04T10:44:01;100182.23;;;14.44;100.00
36454;BME280;22478;51.740;-1.314;2022-09-04T10:46:35;100187.13;;;14.21;100.00
36454;BME280;22478;51.740;-1.314;2022-09-04T10:49:17;100184.95;;;14.98;100.00
36454;BME280;22478;51.740;-1.314;2022-09-04T10:52:13;100178.56;;;15.18;100.00
36454;BME280;22478;51.740;-1.314;2022-09-04T10:55:19;100181.92;;;16.48;100.00
36454;BME280;22478;51.740;-1.314;2022-09-04T10:58:05;100174.80;;;17.32;100.00
36454;BME280;22478;51.740;-1.314;2022-09-04T11:00:44;100183.08;;;15.36;100.00
36454;BME280;22478;51.740;-1.314;2022-09-04T11:03:30;100178.37;;;16.37;100.00
36454;BME280;22478;51.740;-1.314;2022-09-04T11:06:17;100175.97;;;16.77;100.00
36454;BME280;22478;51.740;-1.314;2022-09-04T11:11:21;100181.02;;;16.74;100.00
36454;BME280;22478;51.740;-1.314;2022-09-04T11:14:07;100177.55;;;14.89;100.00
36454;BME280;22478;51.740;-1.314;2022-09-04T11:17:12;100179.72;;;15.44;100.00
36454;BME280;22478;51.740;-1.314;2022-09-04T11:20:08;100178.18;;;13.78;100.00
36454;BME280;22478;51.740;-1.314;2022-09-04T11:23:14;100178.73;;;15.15;100.00
36454;BME280;22478;51.740;-1.314;2022-09-04T11:26:10;100181.95;;;14.43;100.00
36454;BME280;22478;51.740;-1.314;2022-09-04T11:28:58;100181.72;;;14.72;100.00
36454;BME280;22478;51.740;-1.314;2022-09-04T11:31:36;100183.13;;;15.91;100.00
36454;BME280;22478;51.740;-1.314;2022-09-04T11:35:26;100177.36;;;17.09;100.00
36454;BME280;22478;51.740;-1.314;2022-09-04T11:38:07;100180.72;;;16.64;100.00
36454;BME280;22478;51.740;-1.314;2022-09-04T11:41:36;100184.72;;;16.55;100.00
36454;BME280;22478;51.740;-1.314;2022-09-04T11:44:21;100179.77;;;16.50;100.00
36454;BME280;22478;51.740;-1.314;2022-09-04T11:47:09;100165.00;;;17.90;100.00
36454;BME280;22478;51.740;-1.314;2022-09-04T11:49:56;100165.59;;;17.13;100.00
36454;BME280;22478;51.740;-1.314;2022-09-04T11:52:30;100169.77;;;18.96;100.00
36454;BME280;22478;51.740;-1.314;2022-09-04T11:55:13;100179.28;;;18.20;100.00
36454;BME280;22478;51.740;-1.314;2022-09-04T11:57:56;100175.40;;;18.77;100.00
36454;BME280;22478;51.740;-1.314;2022-09-04T12:00:33;100178.68;;;19.88;100.00
36454;BME280;22478;51.740;-1.314;2022-09-04T12:03:24;100176.51;;;19.61;100.00
36454;BME280;22478;51.740;-1.314;2022-09-04T12:06:20;100176.78;;;19.38;100.00
36454;BME280;22478;51.740;-1.314;2022-09-04T12:09:10;100173.72;;;20.39;96.96
36454;BME280;22478;51.740;-1.314;2022-09-04T12:11:59;100183.51;;;19.93;95.28
36454;BME280;22478;51.740;-1.314;2022-09-04T12:14:42;100192.32;;;20.75;91.95
36454;BME280;22478;51.740;-1.314;2022-09-04T12:17:31;100178.01;;;19.86;96.59
36454;BME280;22478;51.740;-1.314;2022-09-04T12:20:25;100187.34;;;18.79;100.00
36454;BME280;22478;51.740;-1.314;2022-09-04T12:23:08;100186.47;;;20.19;96.38
36454;BME280;22478;51.740;-1.314;2022-09-04T12:26:27;100186.86;;;19.15;99.20
36454;BME280;22478;51.740;-1.314;2022-09-04T12:29:11;100196.34;;;19.29;98.86
36454;BME280;22478;51.740;-1.314;2022-09-04T12:31:58;100190.89;;;19.07;100.00
36454;BME280;22478;51.740;-1.314;2022-09-04T12:34:47;100189.94;;;17.88;100.00
36454;BME280;22478;51.740;-1.314;2022-09-04T12:37:33;100190.86;;;18.93;100.00
36454;BME280;22478;51.740;-1.314;2022-09-04T12:40:12;100190.30;;;18.91;100.00
36454;BME280;22478;51.740;-1.314;2022-09-04T12:42:52;100196.99;;;17.95;100.00
36454;BME280;22478;51.740;-1.314;2022-09-04T12:45:31;100196.64;;;18.42;100.00
36454;BME280;22478;51.740;-1.314;2022-09-04T12:48:08;100199.40;;;18.10;100.00
36454;BME280;22478;51.740;-1.314;2022-09-04T12:50:45;100198.52;;;19.70;100.00
36454;BME280;22478;51.740;-1.314;2022-09-04T12:53:25;100200.61;;;18.14;100.00
36454;BME280;22478;51.740;-1.314;2022-09-04T12:56:03;100204.82;;;17.25;100.00
36454;BME280;22478;51.740;-1.314;2022-09-04T12:58:46;100189.95;;;18.79;100.00
36454;BME280;22478;51.740;-1.314;2022-09-04T13:01:26;100189.18;;;18.61;100.00
36454;BME280;22478;51.740;-1.314;2022-09-04T13:04:06;100184.93;;;19.77;99.63
36454;BME280;22478;51.740;-1.314;2022-09-04T13:06:44;100185.04;;;18.68;100.00
36454;BME280;22478;51.740;-1.314;2022-09-04T13:09:20;100185.29;;;19.19;100.00
36454;BME280;22478;51.740;-1.314;2022-09-04T13:11:59;100179.79;;;18.73;100.00
36454;BME280;22478;51.740;-1.314;2022-09-04T13:15:14;100179.70;;;17.96;100.00
36454;BME280;22478;51.740;-1.314;2022-09-04T13:17:52;100181.48;;;17.98;100.00
36454;BME280;22478;51.740;-1.314;2022-09-04T13:20:31;100185.66;;;17.49;100.00
36454;BME280;22478;51.740;-1.314;2022-09-04T13:23:11;100188.95;;;18.01;100.00
36454;BME280;22478;51.740;-1.314;2022-09-04T13:25:53;100187.85;;;18.47;100.00
36454;BME280;22478;51.740;-1.314;2022-09-04T13:28:33;100191.91;;;18.30;100.00
36454;BME280;22478;51.740;-1.314;2022-09-04T13:31:25;100197.00;;;17.25;100.00
36454;BME280;22478;51.740;-1.314;2022-09-04T13:34:02;100205.79;;;17.01;100.00
36454;BME280;22478;51.740;-1.314;2022-09-04T13:36:42;100207.86;;;16.98;100.00
36454;BME280;22478;51.740;-1.314;2022-09-04T13:39:26;100203.11;;;18.15;100.00
36454;BME280;22478;51.740;-1.314;2022-09-04T13:42:09;100209.62;;;18.30;100.00
36454;BME280;22478;51.740;-1.314;2022-09-04T13:44:55;100211.13;;;17.31;100.00
36454;BME280;22478;51.740;-1.314;2022-09-04T13:47:27;100207.47;;;17.36;100.00
36454;BME280;22478;51.740;-1.314;2022-09-04T13:50:01;100206.56;;;17.21;100.00
36454;BME280;22478;51.740;-1.314;2022-09-04T13:52:33;100202.20;;;17.77;100.00
36454;BME280;22478;51.740;-1.314;2022-09-04T13:55:06;100196.89;;;17.69;100.00
36454;BME280;22478;51.740;-1.314;2022-09-04T13:57:40;100200.97;;;18.49;100.00
36454;BME280;22478;51.740;-1.314;2022-09-04T14:00:11;100195.24;;;17.69;100.00
36454;BME280;22478;51.740;-1.314;2022-09-04T14:02:40;100203.12;;;17.85;100.00
36454;BME280;22478;51.740;-1.314;2022-09-04T14:05:10;100201.61;;;17.30;100.00
36454;BME280;22478;51.740;-1.314;2022-09-04T14:07:41;100201.68;;;18.73;100.00